createdAt,value
2017-05-21T00:00:14.684Z,93.51
2017-05-21T00:01:16.106Z,93.46
2017-05-21T00:02:17.528Z,93.41
2017-05-21T00:03:18.951Z,94.27
2017-05-21T00:04:20.383Z,94.37
2017-05-21T00:05:21.810Z,95.12
2017-05-21T00:06:23.233Z,94.74
2017-05-21T00:07:24.666Z,94.27
2017-05-21T00:08:26.086Z,94.08
2017-05-21T00:09:27.514Z,94.17
2017-05-21T00:10:28.930Z,94.08
2017-05-21T00:11:30.352Z,94.37
2017-05-21T00:12:31.778Z,94.65
2017-05-21T00:13:33.202Z,94.74
2017-05-21T00:14:34.623Z,94.65
2017-05-21T00:15:36.054Z,94.46
2017-05-21T00:16:37.477Z,94.27
2017-05-21T00:17:38.901Z,94.17
2017-05-21T00:18:40.323Z,94.08
2017-05-21T00:19:41.749Z,94.08
2017-05-21T00:20:43.174Z,93.65
2017-05-21T00:21:44.605Z,94.08
2017-05-21T00:22:46.028Z,93.60
2017-05-21T00:23:47.457Z,94.17
2017-05-21T00:24:48.874Z,93.41
2017-05-21T00:25:50.305Z,93.37
2017-05-21T00:26:51.729Z,93.17
2017-05-21T00:27:53.146Z,93.46
2017-05-21T00:28:54.568Z,93.08
2017-05-21T00:29:56.015Z,93.08
2017-05-21T00:30:57.439Z,92.50
2017-05-21T00:31:58.919Z,92.89
2017-05-21T00:33:00.277Z,93.27
2017-05-21T00:34:01.713Z,92.41
2017-05-21T00:35:03.138Z,92.60
2017-05-21T00:36:04.566Z,92.50
2017-05-21T00:37:05.984Z,92.65
2017-05-21T00:38:07.408Z,93.13
2017-05-21T00:39:08.846Z,92.27
2017-05-21T00:40:10.258Z,92.74
2017-05-21T00:41:11.680Z,92.36
2017-05-21T00:42:13.123Z,93.03
2017-05-21T00:43:14.544Z,93.60
2017-05-21T00:44:15.973Z,93.60
2017-05-21T00:45:17.404Z,93.22
2017-05-21T00:46:18.823Z,93.32
2017-05-21T00:47:20.258Z,94.08
2017-05-21T00:48:21.683Z,93.89
2017-05-21T00:49:23.120Z,94.56
2017-05-21T00:50:24.542Z,94.56
2017-05-21T00:51:25.973Z,94.03
2017-05-21T00:52:27.387Z,94.32
2017-05-21T00:53:28.822Z,94.13
2017-05-21T00:54:30.460Z,95.03
2017-05-21T00:55:32.145Z,95.12
2017-05-21T00:56:33.572Z,95.84
2017-05-21T00:57:35.003Z,95.94
2017-05-21T00:58:36.424Z,96.12
2017-05-21T00:59:37.901Z,96.12
2017-05-21T01:00:39.323Z,95.94
2017-05-21T01:01:40.744Z,96.12
2017-05-21T01:02:42.170Z,94.51
2017-05-21T01:03:43.595Z,94.74
2017-05-21T01:04:45.023Z,94.60
2017-05-21T01:05:46.451Z,94.51
2017-05-21T01:06:47.961Z,94.74
2017-05-21T01:07:49.395Z,93.98
2017-05-21T01:08:50.814Z,94.03
2017-05-21T01:09:52.238Z,94.60
2017-05-21T01:10:53.676Z,94.27
2017-05-21T01:11:55.188Z,94.08
2017-05-21T01:12:56.614Z,93.70
2017-05-21T01:13:58.043Z,93.41
2017-05-21T01:14:59.472Z,93.13
2017-05-21T01:16:00.892Z,93.13
2017-05-21T01:17:02.317Z,94.32
2017-05-21T01:18:03.739Z,94.32
2017-05-21T01:19:05.163Z,93.84
2017-05-21T01:20:06.585Z,94.70
2017-05-21T01:21:08.009Z,95.36
2017-05-21T01:22:09.441Z,95.08
2017-05-21T01:23:10.866Z,95.46
2017-05-21T01:24:12.292Z,95.56
2017-05-21T01:25:13.713Z,96.98
2017-05-21T01:26:15.133Z,96.79
2017-05-21T01:27:16.569Z,95.84
2017-05-21T01:28:17.990Z,96.03
2017-05-21T01:29:19.408Z,94.98
2017-05-21T01:30:20.839Z,95.08
2017-05-21T01:31:22.263Z,95.08
2017-05-21T01:32:23.683Z,95.08
2017-05-21T01:33:25.114Z,94.79
2017-05-21T01:34:26.538Z,94.60
2017-05-21T01:35:27.961Z,94.46
2017-05-21T01:36:29.380Z,94.13
2017-05-21T01:37:30.801Z,94.51
2017-05-21T01:38:32.219Z,95.08
2017-05-21T01:39:33.651Z,94.89
2017-05-21T01:40:35.088Z,94.03
2017-05-21T01:41:36.513Z,94.32
2017-05-21T01:42:37.941Z,93.65
2017-05-21T01:43:39.357Z,93.55
2017-05-21T01:44:40.781Z,92.99
2017-05-21T01:45:42.204Z,91.41
2017-05-21T01:46:43.629Z,92.79
2017-05-21T01:47:45.056Z,93.18
2017-05-21T01:48:46.489Z,92.99
2017-05-21T01:49:47.907Z,93.74
2017-05-21T01:50:49.332Z,94.13
2017-05-21T01:51:50.752Z,93.84
2017-05-21T01:52:52.183Z,94.22
2017-05-21T01:53:53.603Z,94.51
2017-05-21T01:54:55.032Z,94.51
2017-05-21T01:55:56.450Z,95.17
2017-05-21T01:56:57.878Z,94.89
2017-05-21T01:57:59.296Z,95.17
2017-05-21T01:59:00.717Z,95.75
2017-05-21T02:00:02.156Z,95.94
2017-05-21T02:01:04.084Z,95.75
2017-05-21T02:02:05.509Z,95.70
2017-05-21T02:03:06.934Z,95.56
2017-05-21T02:04:08.358Z,94.51
2017-05-21T02:05:09.782Z,94.65
2017-05-21T02:06:11.195Z,95.51
2017-05-21T02:07:12.619Z,95.75
2017-05-21T02:08:14.038Z,95.70
2017-05-21T02:09:15.467Z,95.98
2017-05-21T02:10:16.887Z,96.12
2017-05-21T02:11:18.315Z,96.74
2017-05-21T02:12:19.740Z,96.26
2017-05-21T02:13:21.165Z,96.65
2017-05-21T02:14:22.591Z,96.74
2017-05-21T02:15:24.013Z,95.98
2017-05-21T02:16:25.431Z,96.17
2017-05-21T02:17:26.856Z,95.65
2017-05-21T02:18:28.282Z,95.60
2017-05-21T02:19:29.706Z,95.60
2017-05-21T02:20:31.127Z,95.89
2017-05-21T02:21:32.547Z,96.84
2017-05-21T02:22:33.977Z,95.89
2017-05-21T02:23:35.396Z,96.74
2017-05-21T02:24:36.820Z,96.65
2017-05-21T02:25:38.244Z,96.84
2017-05-21T02:26:39.664Z,97.60
2017-05-21T02:27:41.093Z,97.31
2017-05-21T02:28:42.523Z,97.41
2017-05-21T02:29:43.971Z,96.94
2017-05-21T02:30:45.432Z,97.13
2017-05-21T02:31:46.855Z,97.50
2017-05-21T02:32:48.335Z,96.94
2017-05-21T02:33:49.705Z,96.94
2017-05-21T02:34:51.134Z,97.22
2017-05-21T02:35:52.565Z,97.22
2017-05-21T02:36:53.985Z,96.74
2017-05-21T02:37:55.516Z,97.22
2017-05-21T02:38:56.934Z,97.22
2017-05-21T02:39:58.362Z,96.65
2017-05-21T02:40:59.795Z,95.79
2017-05-21T02:42:01.219Z,95.03
2017-05-21T02:43:02.645Z,95.22
2017-05-21T02:44:04.061Z,95.12
2017-05-21T02:45:06.402Z,95.22
2017-05-21T02:46:07.825Z,94.65
2017-05-21T02:47:09.249Z,94.98
2017-05-21T02:48:10.681Z,94.89
2017-05-21T02:49:12.101Z,95.70
2017-05-21T02:50:13.522Z,95.75
2017-05-21T02:51:14.951Z,94.93
2017-05-21T02:52:16.371Z,94.74
2017-05-21T02:53:17.797Z,94.93
2017-05-21T02:54:19.222Z,94.22
2017-05-21T02:55:20.641Z,93.84
2017-05-21T02:56:22.117Z,93.84
2017-05-21T02:57:23.489Z,93.65
2017-05-21T02:58:24.918Z,93.27
2017-05-21T02:59:26.335Z,92.03
2017-05-21T03:00:27.760Z,93.18
2017-05-21T03:01:29.175Z,92.89
2017-05-21T03:02:30.600Z,92.51
2017-05-21T03:03:32.025Z,92.22
2017-05-21T03:04:33.448Z,93.27
2017-05-21T03:05:34.868Z,92.89
2017-05-21T03:06:36.294Z,92.22
2017-05-21T03:07:37.720Z,92.99
2017-05-21T03:08:39.149Z,93.98
2017-05-21T03:09:40.566Z,94.56
2017-05-21T03:10:41.993Z,94.74
2017-05-21T03:11:43.413Z,95.22
2017-05-21T03:12:44.838Z,95.79
2017-05-21T03:13:46.263Z,95.79
2017-05-21T03:14:47.683Z,96.74
2017-05-21T03:15:49.101Z,96.84
2017-05-21T03:16:50.522Z,96.84
2017-05-21T03:17:51.952Z,96.74
2017-05-21T03:18:53.375Z,95.84
2017-05-21T03:19:54.801Z,97.27
2017-05-21T03:20:56.223Z,97.17
2017-05-21T03:21:57.644Z,96.36
2017-05-21T03:22:59.066Z,96.46
2017-05-21T03:24:00.493Z,96.74
2017-05-21T03:25:02.005Z,96.74
2017-05-21T03:26:03.428Z,96.46
2017-05-21T03:27:04.852Z,96.98
2017-05-21T03:28:06.275Z,96.74
2017-05-21T03:29:07.700Z,96.26
2017-05-21T03:30:09.131Z,95.89
2017-05-21T03:31:10.550Z,96.26
2017-05-21T03:32:11.983Z,96.65
2017-05-21T03:33:13.412Z,96.08
2017-05-21T03:34:14.833Z,95.89
2017-05-21T03:35:16.254Z,95.60
2017-05-21T03:36:17.681Z,95.32
2017-05-21T03:37:19.102Z,94.93
2017-05-21T03:38:20.523Z,94.08
2017-05-21T03:39:21.954Z,93.70
2017-05-21T03:40:23.374Z,93.23
2017-05-21T03:41:24.797Z,94.65
2017-05-21T03:42:26.217Z,95.12
2017-05-21T03:43:27.644Z,95.03
2017-05-21T03:44:29.064Z,95.32
2017-05-21T03:45:30.488Z,95.60
2017-05-21T03:46:31.906Z,96.08
2017-05-21T03:47:33.334Z,96.65
2017-05-21T03:48:34.757Z,96.31
2017-05-21T03:49:36.187Z,97.41
2017-05-21T03:50:37.610Z,96.84
2017-05-21T03:51:39.269Z,96.84
2017-05-21T03:52:40.685Z,97.03
2017-05-21T03:53:42.107Z,95.89
2017-05-21T03:54:43.521Z,95.03
2017-05-21T03:55:44.953Z,95.70
2017-05-21T03:56:46.396Z,95.60
2017-05-21T03:57:47.822Z,95.60
2017-05-21T03:58:49.253Z,95.89
2017-05-21T03:59:50.675Z,96.55
2017-05-21T04:00:52.101Z,96.74
2017-05-21T04:01:53.524Z,96.74
2017-05-21T04:02:54.956Z,96.94
2017-05-21T04:03:56.375Z,96.79
2017-05-21T04:04:57.802Z,97.27
2017-05-21T04:05:59.225Z,97.31
2017-05-21T04:07:00.652Z,97.93
2017-05-21T04:08:02.075Z,97.88
2017-05-21T04:09:03.495Z,97.64
2017-05-21T04:10:04.918Z,98.17
2017-05-21T04:11:06.343Z,97.50
2017-05-21T04:12:07.764Z,97.50
2017-05-21T04:13:09.186Z,96.65
2017-05-21T04:14:10.611Z,96.36
2017-05-21T04:15:12.035Z,96.84
2017-05-21T04:16:13.466Z,96.84
2017-05-21T04:17:14.886Z,96.74
2017-05-21T04:18:16.309Z,96.74
2017-05-21T04:19:17.732Z,95.79
2017-05-21T04:20:19.178Z,94.98
2017-05-21T04:21:20.603Z,95.32
2017-05-21T04:22:22.025Z,95.79
2017-05-21T04:23:23.452Z,96.08
2017-05-21T04:24:24.879Z,96.74
2017-05-21T04:25:26.309Z,97.03
2017-05-21T04:26:27.737Z,95.70
2017-05-21T04:27:29.162Z,97.13
2017-05-21T04:28:30.588Z,97.22
2017-05-21T04:29:32.017Z,97.03
2017-05-21T04:30:33.442Z,96.55
2017-05-21T04:31:34.865Z,96.46
2017-05-21T04:32:36.295Z,96.84
2017-05-21T04:33:37.728Z,94.89
2017-05-21T04:34:39.156Z,95.27
2017-05-21T04:35:40.582Z,95.17
2017-05-21T04:36:42.011Z,95.65
2017-05-21T04:37:43.527Z,96.17
2017-05-21T04:38:44.949Z,96.84
2017-05-21T04:39:46.371Z,96.70
2017-05-21T04:40:47.803Z,97.46
2017-05-21T04:41:49.233Z,98.22
2017-05-21T04:42:50.656Z,98.36
2017-05-21T04:43:52.084Z,98.22
2017-05-21T04:44:53.510Z,96.89
2017-05-21T04:45:54.934Z,96.98
2017-05-21T04:46:56.367Z,97.27
2017-05-21T04:47:57.791Z,98.79
2017-05-21T04:48:59.223Z,99.08
2017-05-21T04:50:00.648Z,99.27
2017-05-21T04:51:02.080Z,99.88
2017-05-21T04:52:03.508Z,99.99
2017-05-21T04:53:05.646Z,99.88
2017-05-21T04:54:07.079Z,99.84
2017-05-21T04:55:08.494Z,99.99
2017-05-21T04:56:09.931Z,99.84
2017-05-21T04:57:11.357Z,99.99
2017-05-21T04:58:12.772Z,99.99
2017-05-21T04:59:14.191Z,99.99
2017-05-21T05:00:15.619Z,99.99
2017-05-21T05:01:17.044Z,99.99
2017-05-21T05:02:18.467Z,99.99
2017-05-21T05:03:19.892Z,99.99
2017-05-21T05:04:21.315Z,99.99
2017-05-21T05:05:22.738Z,99.99
2017-05-21T05:06:24.165Z,99.99
2017-05-21T05:07:25.596Z,99.99
2017-05-21T05:08:27.019Z,99.99
2017-05-21T05:09:28.448Z,99.99
2017-05-21T05:10:29.875Z,99.99
2017-05-21T05:11:31.302Z,99.99
2017-05-21T05:12:32.736Z,99.99
2017-05-21T05:13:34.158Z,99.99
2017-05-21T05:14:35.594Z,99.99
2017-05-21T05:15:37.019Z,99.99
2017-05-21T05:16:38.446Z,99.99
2017-05-21T05:17:39.896Z,99.99
2017-05-21T05:18:41.334Z,99.99
2017-05-21T05:19:42.766Z,99.99
2017-05-21T05:20:44.195Z,99.98
2017-05-21T05:21:45.629Z,99.13
2017-05-21T05:22:47.053Z,98.84
2017-05-21T05:23:48.485Z,99.41
2017-05-21T05:24:49.986Z,98.99
2017-05-21T05:25:51.417Z,99.18
2017-05-21T05:26:52.843Z,98.79
2017-05-21T05:27:54.277Z,97.75
2017-05-21T05:28:55.729Z,97.84
2017-05-21T05:29:57.163Z,98.13
2017-05-21T05:30:58.595Z,97.94
2017-05-21T05:32:00.024Z,97.46
2017-05-21T05:33:01.453Z,97.65
2017-05-21T05:34:02.877Z,97.51
2017-05-21T05:35:04.310Z,97.41
2017-05-21T05:36:05.739Z,97.41
2017-05-21T05:37:07.219Z,96.08
2017-05-21T05:38:08.648Z,96.84
2017-05-21T05:39:10.075Z,96.56
2017-05-21T05:40:11.510Z,95.89
2017-05-21T05:41:12.941Z,96.41
2017-05-21T05:42:14.367Z,95.37
2017-05-21T05:43:15.798Z,95.37
2017-05-21T05:44:17.231Z,94.89
2017-05-21T05:45:18.655Z,93.93
2017-05-21T05:46:20.089Z,94.03
2017-05-21T05:47:21.517Z,93.55
2017-05-21T05:48:22.943Z,93.65
2017-05-21T05:49:24.372Z,93.17
2017-05-21T05:50:25.807Z,92.46
2017-05-21T05:51:27.238Z,92.36
2017-05-21T05:52:28.754Z,92.46
2017-05-21T05:53:30.114Z,91.98
2017-05-21T05:54:31.543Z,91.50
2017-05-21T05:55:32.967Z,92.07
2017-05-21T05:56:34.399Z,91.60
2017-05-21T05:57:35.830Z,91.88
2017-05-21T05:58:37.258Z,92.46
2017-05-21T05:59:38.691Z,93.51
2017-05-21T06:00:40.122Z,93.46
2017-05-21T06:01:41.551Z,93.74
2017-05-21T06:02:42.982Z,94.74
2017-05-21T06:03:44.429Z,94.27
2017-05-21T06:04:45.856Z,93.02
2017-05-21T06:05:47.281Z,93.36
2017-05-21T06:06:48.717Z,93.07
2017-05-21T06:07:50.143Z,92.41
2017-05-21T06:08:52.276Z,92.50
2017-05-21T06:09:53.705Z,92.02
2017-05-21T06:10:55.139Z,91.07
2017-05-21T06:11:56.566Z,91.93
2017-05-21T06:12:57.998Z,91.07
2017-05-21T06:13:59.421Z,91.07
2017-05-21T06:15:00.852Z,90.21
2017-05-21T06:16:02.279Z,88.25
2017-05-21T06:17:03.713Z,90.25
2017-05-21T06:18:05.148Z,87.48
2017-05-21T06:19:06.569Z,87.68
2017-05-21T06:20:08.002Z,88.06
2017-05-21T06:21:09.437Z,88.73
2017-05-21T06:22:10.868Z,87.96
2017-05-21T06:23:12.296Z,88.73
2017-05-21T06:24:13.727Z,87.29
2017-05-21T06:25:15.159Z,86.63
2017-05-21T06:26:16.586Z,85.00
2017-05-21T06:27:18.021Z,85.81
2017-05-21T06:28:19.477Z,87.15
2017-05-21T06:29:20.906Z,87.24
2017-05-21T06:30:22.344Z,86.05
2017-05-21T06:31:23.779Z,87.72
2017-05-21T06:32:25.216Z,85.42
2017-05-21T06:33:26.648Z,84.37
2017-05-21T06:34:28.088Z,84.37
2017-05-21T06:35:29.637Z,84.19
2017-05-21T06:36:31.071Z,85.24
2017-05-21T06:37:32.506Z,83.51
2017-05-21T06:38:33.935Z,85.52
2017-05-21T06:39:35.368Z,85.81
2017-05-21T06:40:36.799Z,83.61
2017-05-21T06:41:38.224Z,84.09
2017-05-21T06:42:39.732Z,81.55
2017-05-21T06:43:41.165Z,81.74
2017-05-21T06:44:42.591Z,82.89
2017-05-21T06:45:44.041Z,84.42
2017-05-21T06:46:45.478Z,80.88
2017-05-21T06:47:46.903Z,82.31
2017-05-21T06:48:48.333Z,80.40
2017-05-21T06:49:49.770Z,78.87
2017-05-21T06:50:51.288Z,79.58
2017-05-21T06:51:52.721Z,79.00
2017-05-21T06:52:54.152Z,77.76
2017-05-21T06:53:55.589Z,77.76
2017-05-21T06:54:57.025Z,77.99
2017-05-21T06:55:58.459Z,78.47
2017-05-21T06:56:59.889Z,77.99
2017-05-21T06:58:01.328Z,76.27
2017-05-21T06:59:02.756Z,78.86
2017-05-21T07:00:04.207Z,78.66
2017-05-21T07:01:05.707Z,76.84
2017-05-21T07:02:07.150Z,78.95
2017-05-21T07:03:08.583Z,77.99
2017-05-21T07:04:10.025Z,77.04
2017-05-21T07:05:11.458Z,76.84
2017-05-21T07:06:12.895Z,77.13
2017-05-21T07:07:14.331Z,75.98
2017-05-21T07:08:15.751Z,75.26
2017-05-21T07:09:17.190Z,74.45
2017-05-21T07:10:18.623Z,76.31
2017-05-21T07:11:20.049Z,71.81
2017-05-21T07:12:21.622Z,72.92
2017-05-21T07:13:23.054Z,73.21
2017-05-21T07:14:24.484Z,74.26
2017-05-21T07:15:25.919Z,72.77
2017-05-21T07:16:27.354Z,74.77
2017-05-21T07:17:28.784Z,76.37
2017-05-21T07:18:30.213Z,74.84
2017-05-21T07:19:31.652Z,74.16
2017-05-21T07:20:33.097Z,74.58
2017-05-21T07:21:34.529Z,74.30
2017-05-21T07:22:35.968Z,73.91
2017-05-21T07:23:37.413Z,76.02
2017-05-21T07:24:38.850Z,74.77
2017-05-21T07:25:40.284Z,73.72
2017-05-21T07:26:41.820Z,72.38
2017-05-21T07:27:43.322Z,73.54
2017-05-21T07:28:44.750Z,73.63
2017-05-21T07:29:46.184Z,73.54
2017-05-21T07:30:47.615Z,73.54
2017-05-21T07:31:49.047Z,72.06
2017-05-21T07:32:50.479Z,73.05
2017-05-21T07:33:51.909Z,72.34
2017-05-21T07:34:53.344Z,71.23
2017-05-21T07:35:54.775Z,69.80
2017-05-21T07:36:56.202Z,68.27
2017-05-21T07:37:57.636Z,71.71
2017-05-21T07:38:59.075Z,70.95
2017-05-21T07:40:00.498Z,68.87
2017-05-21T07:41:01.936Z,68.68
2017-05-21T07:42:03.374Z,67.63
2017-05-21T07:43:04.808Z,67.44
2017-05-21T07:44:06.243Z,68.87
2017-05-21T07:45:07.675Z,70.50
2017-05-21T07:46:09.103Z,68.59
2017-05-21T07:47:10.536Z,68.78
2017-05-21T07:48:11.962Z,68.36
2017-05-21T07:49:13.391Z,69.74
2017-05-21T07:50:14.822Z,67.91
2017-05-21T07:51:16.260Z,68.78
2017-05-21T07:52:17.695Z,68.87
2017-05-21T07:53:19.125Z,65.91
2017-05-21T07:54:20.559Z,66.19
2017-05-21T07:55:22.000Z,69.17
2017-05-21T07:56:23.437Z,68.40
2017-05-21T07:57:24.874Z,67.82
2017-05-21T07:58:26.306Z,66.67
2017-05-21T07:59:27.738Z,65.75
2017-05-21T08:00:29.176Z,68.05
2017-05-21T08:01:30.607Z,68.30
2017-05-21T08:02:32.035Z,67.25
2017-05-21T08:03:34.405Z,67.34
2017-05-21T08:04:34.857Z,66.71
2017-05-21T08:05:36.284Z,67.15
2017-05-21T08:06:37.715Z,66.38
2017-05-21T08:07:39.148Z,65.94
2017-05-21T08:08:40.575Z,65.94
2017-05-21T08:09:42.009Z,66.51
2017-05-21T08:10:43.436Z,68.21
2017-05-21T08:11:44.865Z,66.13
2017-05-21T08:12:46.297Z,65.65
2017-05-21T08:13:47.733Z,64.12
2017-05-21T08:14:49.167Z,64.31
2017-05-21T08:15:50.607Z,67.09
2017-05-21T08:16:52.035Z,64.59
2017-05-21T08:17:53.474Z,63.45
2017-05-21T08:18:54.906Z,64.15
2017-05-21T08:19:56.342Z,63.57
2017-05-21T08:20:57.771Z,62.87
2017-05-21T08:21:59.203Z,61.85
2017-05-21T08:23:00.631Z,62.71
2017-05-21T08:24:02.063Z,62.13
2017-05-21T08:25:03.495Z,62.33
2017-05-21T08:26:04.926Z,64.15
2017-05-21T08:27:07.136Z,63.06
2017-05-21T08:28:08.572Z,60.60
2017-05-21T08:29:09.997Z,60.03
2017-05-21T08:30:11.430Z,59.09
2017-05-21T08:31:12.856Z,62.52
2017-05-21T08:32:14.293Z,61.21
2017-05-21T08:33:15.731Z,60.99
2017-05-21T08:34:17.163Z,59.00
2017-05-21T08:35:18.593Z,59.86
2017-05-21T08:36:20.035Z,59.19
2017-05-21T08:37:21.478Z,59.29
2017-05-21T08:38:22.907Z,57.78
2017-05-21T08:39:24.338Z,60.18
2017-05-21T08:40:25.774Z,57.28
2017-05-21T08:41:27.254Z,55.74
2017-05-21T08:42:28.685Z,55.35
2017-05-21T08:43:30.115Z,56.44
2017-05-21T08:44:31.549Z,55.57
2017-05-21T08:45:32.984Z,56.24
2017-05-21T08:46:34.421Z,54.80
2017-05-21T08:47:35.863Z,54.80
2017-05-21T08:48:37.375Z,54.04
2017-05-21T08:49:38.800Z,55.38
2017-05-21T08:50:40.470Z,56.24
2017-05-21T08:51:41.894Z,59.00
2017-05-21T08:52:43.324Z,60.63
2017-05-21T08:53:44.758Z,62.45
2017-05-21T08:54:46.193Z,62.65
2017-05-21T08:55:47.632Z,65.14
2017-05-21T08:56:49.061Z,67.41
2017-05-21T08:57:50.492Z,66.10
2017-05-21T08:58:51.918Z,65.43
2017-05-21T08:59:53.357Z,61.30
2017-05-21T09:00:54.784Z,60.25
2017-05-21T09:01:56.212Z,57.46
2017-05-21T09:02:57.649Z,57.85
2017-05-21T09:03:59.086Z,56.22
2017-05-21T09:05:00.517Z,55.64
2017-05-21T09:06:01.956Z,56.60
2017-05-21T09:07:03.384Z,56.79
2017-05-21T09:08:04.818Z,56.31
2017-05-21T09:09:06.252Z,56.15
2017-05-21T09:10:07.731Z,56.73
2017-05-21T09:11:09.166Z,55.19
2017-05-21T09:12:10.597Z,57.68
2017-05-21T09:13:12.038Z,56.92
2017-05-21T09:14:13.485Z,59.34
2017-05-21T09:15:14.916Z,57.62
2017-05-21T09:16:16.953Z,55.73
2017-05-21T09:17:18.362Z,52.26
2017-05-21T09:18:19.797Z,53.70
2017-05-21T09:19:21.226Z,51.79
2017-05-21T09:20:22.664Z,53.54
2017-05-21T09:21:24.097Z,56.23
2017-05-21T09:22:25.533Z,55.66
2017-05-21T09:23:26.979Z,52.97
2017-05-21T09:24:28.430Z,51.91
2017-05-21T09:25:30.660Z,49.31
2017-05-21T09:26:32.101Z,49.60
2017-05-21T09:27:33.539Z,51.81
2017-05-21T09:28:34.991Z,50.59
2017-05-21T09:29:36.424Z,47.77
2017-05-21T09:30:37.862Z,49.41
2017-05-21T09:31:39.291Z,50.95
2017-05-21T09:32:40.731Z,52.00
2017-05-21T09:33:42.168Z,51.23
2017-05-21T09:34:43.603Z,51.17
2017-05-21T09:35:45.043Z,50.76
2017-05-21T09:36:46.478Z,49.31
2017-05-21T09:37:47.909Z,53.16
2017-05-21T09:38:49.417Z,53.06
2017-05-21T09:39:50.795Z,54.31
2017-05-21T09:40:52.260Z,51.59
2017-05-21T09:41:53.681Z,52.87
2017-05-21T09:42:55.109Z,53.83
2017-05-21T09:43:56.556Z,57.10
2017-05-21T09:44:57.996Z,53.54
2017-05-21T09:45:59.455Z,53.06
2017-05-21T09:47:00.889Z,51.33
2017-05-21T09:48:02.327Z,52.17
2017-05-21T09:49:03.768Z,51.11
2017-05-21T09:50:05.211Z,53.03
2017-05-21T09:51:06.645Z,56.88
2017-05-21T09:52:08.096Z,53.23
2017-05-21T09:53:09.544Z,55.63
2017-05-21T09:54:10.967Z,51.11
2017-05-21T09:55:12.398Z,52.36
2017-05-21T09:56:13.836Z,53.52
2017-05-21T09:57:15.276Z,53.32
2017-05-21T09:58:16.709Z,55.08
2017-05-21T09:59:18.165Z,52.58
2017-05-21T10:00:19.608Z,54.50
2017-05-21T10:01:21.050Z,50.08
2017-05-21T10:02:22.487Z,51.04
2017-05-21T10:03:23.917Z,54.41
2017-05-21T10:04:25.357Z,52.39
2017-05-21T10:05:26.805Z,51.26
2017-05-21T10:06:28.239Z,50.68
2017-05-21T10:07:30.419Z,51.86
2017-05-21T10:08:31.856Z,50.99
2017-05-21T10:09:33.424Z,49.87
2017-05-21T10:10:34.862Z,52.66
2017-05-21T10:11:36.294Z,47.85
2017-05-21T10:12:37.740Z,45.70
2017-05-21T10:13:39.177Z,44.72
2017-05-21T10:14:40.618Z,45.20
2017-05-21T10:15:42.065Z,45.03
2017-05-21T10:16:43.506Z,45.39
2017-05-21T10:17:44.941Z,44.55
2017-05-21T10:18:46.384Z,44.07
2017-05-21T10:19:47.848Z,47.61
2017-05-21T10:20:49.307Z,47.44
2017-05-21T10:21:50.746Z,46.78
2017-05-21T10:22:52.196Z,45.73
2017-05-21T10:23:53.638Z,43.34
2017-05-21T10:24:55.125Z,45.65
2017-05-21T10:25:56.516Z,50.25
2017-05-21T10:26:57.951Z,49.36
2017-05-21T10:27:59.394Z,46.59
2017-05-21T10:29:00.830Z,46.42
2017-05-21T10:30:02.277Z,47.77
2017-05-21T10:31:03.715Z,45.56
2017-05-21T10:32:05.146Z,49.29
2017-05-21T10:33:06.590Z,43.23
2017-05-21T10:34:08.078Z,43.90
2017-05-21T10:35:09.531Z,42.65
2017-05-21T10:36:10.968Z,43.99
2017-05-21T10:37:12.409Z,42.96
2017-05-21T10:38:13.851Z,44.42
2017-05-21T10:39:16.094Z,43.94
2017-05-21T10:40:17.524Z,43.19
2017-05-21T10:41:18.973Z,45.60
2017-05-21T10:42:20.404Z,44.73
2017-05-21T10:43:21.836Z,43.10
2017-05-21T10:44:23.275Z,44.66
2017-05-21T10:45:24.714Z,43.67
2017-05-21T10:46:26.161Z,43.19
2017-05-21T10:47:27.610Z,42.71
2017-05-21T10:48:29.050Z,44.23
2017-05-21T10:49:30.489Z,43.67
2017-05-21T10:50:31.924Z,43.19
2017-05-21T10:51:33.363Z,40.20
2017-05-21T10:52:34.798Z,41.44
2017-05-21T10:53:36.240Z,40.69
2017-05-21T10:54:37.706Z,39.43
2017-05-21T10:55:39.143Z,41.94
2017-05-21T10:56:40.588Z,42.63
2017-05-21T10:57:42.034Z,42.61
2017-05-21T10:58:43.502Z,43.10
2017-05-21T10:59:44.962Z,41.44
2017-05-21T11:00:46.403Z,44.81
2017-05-21T11:01:48.358Z,45.97
2017-05-21T11:02:49.798Z,42.55
2017-05-21T11:03:51.234Z,43.61
2017-05-21T11:04:52.678Z,43.99
2017-05-21T11:05:54.120Z,45.65
2017-05-21T11:06:55.555Z,48.23
2017-05-21T11:07:56.989Z,45.53
2017-05-21T11:08:58.427Z,46.59
2017-05-21T11:09:59.879Z,44.28
2017-05-21T11:11:01.324Z,44.48
2017-05-21T11:12:02.758Z,46.69
2017-05-21T11:13:04.201Z,48.03
2017-05-21T11:14:05.648Z,47.08
2017-05-21T11:15:07.099Z,47.05
2017-05-21T11:16:08.746Z,46.86
2017-05-21T11:17:10.375Z,47.56
2017-05-21T11:18:11.803Z,44.96
2017-05-21T11:19:13.243Z,44.21
2017-05-21T11:20:14.678Z,46.59
2017-05-21T11:21:16.122Z,48.81
2017-05-21T11:22:17.561Z,47.58
2017-05-21T11:23:19.010Z,46.45
2017-05-21T11:24:20.446Z,43.67
2017-05-21T11:25:21.887Z,44.35
2017-05-21T11:26:23.327Z,44.76
2017-05-21T11:27:24.764Z,41.48
2017-05-21T11:28:26.199Z,40.53
2017-05-21T11:29:27.637Z,43.45
2017-05-21T11:30:29.074Z,40.24
2017-05-21T11:31:30.517Z,41.69
2017-05-21T11:32:31.946Z,40.42
2017-05-21T11:33:34.159Z,41.78
2017-05-21T11:34:35.597Z,41.02
2017-05-21T11:35:37.032Z,40.03
2017-05-21T11:36:38.469Z,41.38
2017-05-21T11:37:39.916Z,42.36
2017-05-21T11:38:41.355Z,38.20
2017-05-21T11:39:42.796Z,40.45
2017-05-21T11:40:44.924Z,41.52
2017-05-21T11:41:46.357Z,41.42
2017-05-21T11:42:47.798Z,41.52
2017-05-21T11:43:49.244Z,39.12
2017-05-21T11:44:50.672Z,41.75
2017-05-21T11:45:52.122Z,39.72
2017-05-21T11:46:53.560Z,40.30
2017-05-21T11:47:54.994Z,36.72
2017-05-21T11:48:56.437Z,37.02
2017-05-21T11:49:57.878Z,34.97
2017-05-21T11:50:59.335Z,37.70
2017-05-21T11:52:00.878Z,38.76
2017-05-21T11:53:02.341Z,39.04
2017-05-21T11:54:03.779Z,38.06
2017-05-21T11:55:05.217Z,40.57
2017-05-21T11:56:06.664Z,41.75
2017-05-21T11:57:08.112Z,40.42
2017-05-21T11:58:09.552Z,39.55
2017-05-21T11:59:10.984Z,37.98
2017-05-21T12:00:12.431Z,40.40
2017-05-21T12:01:13.868Z,43.40
2017-05-21T12:02:15.309Z,44.63
2017-05-21T12:03:16.746Z,40.38
2017-05-21T12:04:18.191Z,40.28
2017-05-21T12:05:19.627Z,40.86
2017-05-21T12:06:21.077Z,41.91
2017-05-21T12:07:22.506Z,36.87
2017-05-21T12:08:23.943Z,38.89
2017-05-21T12:09:25.391Z,41.88
2017-05-21T12:10:26.827Z,40.53
2017-05-21T12:11:28.267Z,45.82
2017-05-21T12:12:29.703Z,37.33
2017-05-21T12:13:31.145Z,42.35
2017-05-21T12:14:32.590Z,38.68
2017-05-21T12:15:34.024Z,37.73
2017-05-21T12:16:35.468Z,37.73
2017-05-21T12:17:36.926Z,39.18
2017-05-21T12:18:38.369Z,40.92
2017-05-21T12:19:39.801Z,42.10
2017-05-21T12:20:41.233Z,43.24
2017-05-21T12:21:42.679Z,42.48
2017-05-21T12:22:44.119Z,37.93
2017-05-21T12:23:45.560Z,38.71
2017-05-21T12:24:47.000Z,37.85
2017-05-21T12:25:48.443Z,40.55
2017-05-21T12:26:49.878Z,46.34
2017-05-21T12:27:51.318Z,40.80
2017-05-21T12:28:52.764Z,40.90
2017-05-21T12:29:54.205Z,37.52
2017-05-21T12:30:55.643Z,40.32
2017-05-21T12:31:57.084Z,41.50
2017-05-21T12:32:58.522Z,36.27
2017-05-21T12:33:59.962Z,37.35
2017-05-21T12:35:01.400Z,37.08
2017-05-21T12:36:02.848Z,36.80
2017-05-21T12:37:04.290Z,39.01
2017-05-21T12:38:05.723Z,34.45
2017-05-21T12:39:07.167Z,36.48
2017-05-21T12:40:08.607Z,35.13
2017-05-21T12:41:10.193Z,37.54
2017-05-21T12:42:11.626Z,38.04
2017-05-21T12:43:13.064Z,41.35
2017-05-21T12:44:14.500Z,40.96
2017-05-21T12:45:15.940Z,38.81
2017-05-21T12:46:17.377Z,40.96
2017-05-21T12:47:18.822Z,38.76
2017-05-21T12:48:20.258Z,38.37
2017-05-21T12:49:21.696Z,41.27
2017-05-21T12:50:23.143Z,38.66
2017-05-21T12:51:24.584Z,33.31
2017-05-21T12:52:26.027Z,36.32
2017-05-21T12:53:27.462Z,37.48
2017-05-21T12:54:29.728Z,36.71
2017-05-21T12:55:31.175Z,34.95
2017-05-21T12:56:32.611Z,40.09
2017-05-21T12:57:34.054Z,40.11
2017-05-21T12:58:35.603Z,40.30
2017-05-21T12:59:37.038Z,39.70
2017-05-21T13:00:38.474Z,40.20
2017-05-21T13:01:39.918Z,35.08
2017-05-21T13:02:41.365Z,37.67
2017-05-21T13:03:42.808Z,39.03
2017-05-21T13:04:44.243Z,38.76
2017-05-21T13:05:45.699Z,40.88
2017-05-21T13:06:47.136Z,40.50
2017-05-21T13:07:48.588Z,39.53
2017-05-21T13:08:50.041Z,34.58
2017-05-21T13:09:51.491Z,36.13
2017-05-21T13:10:52.947Z,39.72